Time;durP1;ratioP1;P1;durP2;ratioP2;P2;SDS_P1;SDS_P2;PMS_P1;PMS_P2;Temp;Humidity;BMP_temperature;BMP_pressure;BME280_temperature;BME280_humidity;BME280_pressure;Samples;Min_cycle;Max_cycle;Signal;HPM_P1;HPM_P2
2022/08/01 00:01:26;;;;;;;3.53;2.70;;;19.50;99.90;;;;;;5028364;28;20238;-57
2022/08/01 00:03:51;;;;;;;4.35;2.83;;;19.50;99.90;;;;;;5034391;28;20184;-57
2022/08/01 00:06:17;;;;;;;4.78;3.08;;;19.50;99.90;;;;;;5020106;28;20190;-58
2022/08/01 00:08:43;;;;;;;3.47;3.08;;;19.50;99.90;;;;;;5033828;28;20242;-57
2022/08/01 00:11:10;;;;;;;7.43;3.75;;;19.50;99.90;;;;;;5032079;28;20234;-57
2022/08/01 00:13:36;;;;;;;7.00;4.40;;;19.50;99.90;;;;;;5021668;28;20188;-57
2022/08/01 00:16:01;;;;;;;8.02;4.20;;;19.40;99.90;;;;;;5014018;28;20591;-54
2022/08/01 00:18:27;;;;;;;8.70;4.53;;;19.40;99.90;;;;;;5014263;28;20217;-64
2022/08/01 00:20:53;;;;;;;9.93;4.50;;;19.40;99.90;;;;;;5021490;28;20200;-58
2022/08/01 00:23:19;;;;;;;11.98;5.45;;;19.40;99.90;;;;;;5029584;28;20644;-57
2022/08/01 00:25:45;;;;;;;9.10;5.18;;;19.40;99.90;;;;;;5022314;28;20188;-57
2022/08/01 00:28:13;;;;;;;7.70;5.15;;;19.40;99.90;;;;;;5029551;28;20626;-60
2022/08/01 00:30:39;;;;;;;8.48;5.22;;;19.40;99.90;;;;;;5017204;28;20196;-57
2022/08/01 00:33:04;;;;;;;7.88;5.47;;;19.40;99.90;;;;;;5014063;28;20180;-58
2022/08/01 00:35:30;;;;;;;8.02;4.93;;;19.40;99.90;;;;;;5019448;28;20269;-66
2022/08/01 00:37:56;;;;;;;11.13;5.43;;;19.40;99.90;;;;;;5027664;28;20184;-57
2022/08/01 00:40:22;;;;;;;8.52;5.43;;;19.40;99.90;;;;;;5024162;28;20220;-57
2022/08/01 00:42:48;;;;;;;6.93;5.10;;;19.30;99.90;;;;;;5034049;28;20180;-57
2022/08/01 00:45:14;;;;;;;9.57;5.50;;;19.30;99.90;;;;;;5024967;28;20582;-58
2022/08/01 00:47:39;;;;;;;7.68;5.15;;;19.30;99.90;;;;;;5013202;28;20188;-57
2022/08/01 00:50:06;;;;;;;9.73;5.38;;;19.30;99.90;;;;;;5046365;28;20228;-58
2022/08/01 00:52:33;;;;;;;9.18;5.45;;;19.30;99.90;;;;;;5033167;28;20180;-59
2022/08/01 00:54:59;;;;;;;8.38;5.38;;;19.30;99.90;;;;;;5023830;28;20604;-56
2022/08/01 00:57:26;;;;;;;7.18;5.82;;;19.30;99.90;;;;;;5018917;28;20188;-57
2022/08/01 00:59:52;;;;;;;7.93;5.80;;;19.30;99.90;;;;;;5025163;28;20730;-57
2022/08/01 01:02:18;;;;;;;10.52;6.10;;;19.30;99.90;;;;;;5031885;28;20184;-57
2022/08/01 01:04:44;;;;;;;10.75;5.82;;;19.30;99.90;;;;;;5031362;28;20263;-58
2022/08/01 01:07:27;;;;;;;10.63;6.45;;;19.30;99.90;;;;;;5024781;28;20263;-55
2022/08/01 01:10:05;;;;;;;11.35;7.03;;;19.30;99.90;;;;;;5031000;28;20176;-57
2022/08/01 01:12:45;;;;;;;11.25;7.25;;;19.30;99.90;;;;;;5033172;28;20202;-66
2022/08/01 01:15:22;;;;;;;26.02;6.78;;;19.30;99.90;;;;;;5013591;28;20184;-58
2022/08/01 01:18:11;;;;;;;11.18;7.10;;;19.30;99.90;;;;;;5012925;28;20206;-57
2022/08/01 01:20:46;;;;;;;13.88;7.07;;;19.30;99.90;;;;;;5016903;28;20262;-58
2022/08/01 01:23:49;;;;;;;12.43;6.57;;;19.30;99.90;;;;;;5031997;28;20266;-58
2022/08/01 01:26:43;;;;;;;9.10;6.97;;;19.30;99.90;;;;;;5031192;28;20229;-57
2022/08/01 01:29:09;;;;;;;15.65;7.00;;;19.30;99.90;;;;;;5024347;28;20633;-57
2022/08/01 01:32:18;;;;;;;12.63;7.30;;;19.30;99.90;;;;;;5016057;28;20242;-60
2022/08/01 01:34:45;;;;;;;14.55;7.28;;;19.30;99.90;;;;;;5020057;28;20188;-58
2022/08/01 01:37:17;;;;;;;16.40;7.13;;;19.30;99.90;;;;;;5012264;28;20189;-67
2022/08/01 01:39:45;;;;;;;11.48;7.57;;;19.30;99.90;;;;;;5012662;28;20203;-58
2022/08/01 01:42:13;;;;;;;19.63;7.68;;;19.30;99.90;;;;;;5019992;28;20242;-60
2022/08/01 01:44:41;;;;;;;13.15;7.32;;;19.30;99.90;;;;;;5019656;28;20188;-58
2022/08/01 01:47:07;;;;;;;10.13;7.40;;;19.30;99.90;;;;;;5012329;28;20303;-56
2022/08/01 01:49:34;;;;;;;12.20;7.07;;;19.30;99.90;;;;;;5021012;28;20275;-56
2022/08/01 01:52:03;;;;;;;13.23;7.68;;;19.30;99.90;;;;;;5014870;28;20590;-57
2022/08/01 01:54:33;;;;;;;13.88;7.57;;;19.30;99.90;;;;;;5012938;28;20179;-56
2022/08/01 01:57:01;;;;;;;10.73;7.40;;;19.30;99.90;;;;;;5029097;28;20188;-58
2022/08/01 01:59:31;;;;;;;12.23;7.30;;;19.30;99.90;;;;;;5018578;28;20253;-56
2022/08/01 02:02:01;;;;;;;12.85;7.18;;;19.30;99.90;;;;;;5026429;28;20242;-55
2022/08/01 02:04:28;;;;;;;12.73;6.88;;;19.30;99.90;;;;;;5012831;28;20195;-57
2022/08/01 02:06:55;;;;;;;11.32;6.53;;;19.30;99.90;;;;;;5021476;28;20220;-56
2022/08/01 02:09:22;;;;;;;11.10;6.93;;;19.30;99.90;;;;;;4996423;28;20656;-55
2022/08/01 02:11:50;;;;;;;10.80;6.60;;;19.30;99.90;;;;;;5013223;28;20196;-57
2022/08/01 02:14:19;;;;;;;10.98;6.93;;;19.30;99.90;;;;;;5015491;28;20647;-56
2022/08/01 02:16:48;;;;;;;13.02;6.20;;;19.30;99.90;;;;;;5007770;28;20212;-57
2022/08/01 02:19:17;;;;;;;10.57;6.20;;;19.30;99.90;;;;;;4996466;28;20611;-58
2022/08/01 02:21:49;;;;;;;9.88;5.65;;;19.30;99.90;;;;;;4997105;28;20212;-57
2022/08/01 02:24:31;;;;;;;7.32;5.38;;;19.30;99.90;;;;;;5002445;28;20177;-59
2022/08/01 02:27:03;;;;;;;11.15;5.10;;;19.30;99.90;;;;;;4997360;28;20183;-57
2022/08/01 02:29:42;;;;;;;6.55;5.00;;;19.30;99.90;;;;;;5012013;28;20190;-57
2022/08/01 02:32:19;;;;;;;8.82;5.43;;;19.30;99.90;;;;;;5016594;28;20184;-57
2022/08/01 02:34:49;;;;;;;9.05;5.43;;;19.30;99.90;;;;;;5014569;28;20172;-58
2022/08/01 02:37:15;;;;;;;6.75;5.00;;;19.30;99.90;;;;;;4995580;28;20178;-57
2022/08/01 02:39:43;;;;;;;8.80;5.53;;;19.30;99.90;;;;;;4993445;28;20236;-57
2022/08/01 02:42:13;;;;;;;8.35;5.60;;;19.30;99.90;;;;;;5014837;28;20197;-57
2022/08/01 02:44:42;;;;;;;11.45;5.13;;;19.30;99.90;;;;;;5015073;28;20180;-60
2022/08/01 02:47:10;;;;;;;9.10;5.07;;;19.30;99.90;;;;;;5014566;28;20552;-56
2022/08/01 02:49:40;;;;;;;10.57;5.22;;;19.30;99.90;;;;;;5010784;28;20195;-69
2022/08/01 02:52:09;;;;;;;7.28;5.07;;;19.30;99.90;;;;;;4996276;28;20192;-57
2022/08/01 02:54:37;;;;;;;8.77;5.50;;;19.30;99.90;;;;;;5013505;28;20667;-65
2022/08/01 02:57:04;;;;;;;8.77;4.95;;;19.30;99.90;;;;;;5010244;28;20193;-58
2022/08/01 02:59:31;;;;;;;8.35;4.63;;;19.30;99.90;;;;;;5002836;28;20212;-57
2022/08/01 03:02:00;;;;;;;6.82;4.55;;;19.30;99.90;;;;;;5013971;28;20524;-57
2022/08/01 03:04:27;;;;;;;7.07;4.40;;;19.30;99.90;;;;;;5014272;28;20628;-56
2022/08/01 03:06:57;;;;;;;5.53;3.60;;;19.30;99.90;;;;;;5012910;28;20200;-57
2022/08/01 03:09:23;;;;;;;7.90;3.42;;;19.20;99.90;;;;;;5006717;28;20200;-56
2022/08/01 03:11:51;;;;;;;6.35;3.70;;;19.30;99.90;;;;;;4997219;28;20185;-56
2022/08/01 03:14:20;;;;;;;4.75;3.53;;;19.30;99.90;;;;;;5009162;28;20203;-58
2022/08/01 03:16:48;;;;;;;5.97;3.50;;;19.20;99.90;;;;;;5013369;28;20191;-56
2022/08/01 03:19:15;;;;;;;4.38;3.45;;;19.20;99.90;;;;;;5014044;28;20548;-70
2022/08/01 03:21:44;;;;;;;4.82;3.45;;;19.20;99.90;;;;;;4995431;28;20193;-59
2022/08/01 03:24:11;;;;;;;5.10;3.30;;;19.20;99.90;;;;;;4994217;28;20629;-63
2022/08/01 03:26:39;;;;;;;3.67;2.75;;;19.20;99.90;;;;;;4993784;28;20185;-59
2022/08/01 03:29:09;;;;;;;3.47;3.15;;;19.20;99.90;;;;;;5006273;28;20271;-63
2022/08/01 03:31:38;;;;;;;3.72;2.63;;;19.20;99.90;;;;;;5000481;28;20217;-55
2022/08/01 03:34:05;;;;;;;5.13;2.90;;;19.20;99.90;;;;;;5010380;28;20243;-56
2022/08/01 03:36:33;;;;;;;4.82;3.10;;;19.30;99.90;;;;;;5013377;28;20499;-66
2022/08/01 03:39:03;;;;;;;3.17;2.35;;;19.30;99.90;;;;;;5013530;28;20204;-57
2022/08/01 03:41:38;;;;;;;3.10;2.40;;;19.30;99.90;;;;;;4998236;28;20189;-56
2022/08/01 03:44:16;;;;;;;3.95;2.50;;;19.30;99.90;;;;;;4995519;28;20585;-56
2022/08/01 03:46:53;;;;;;;3.90;2.50;;;19.30;99.90;;;;;;4999123;28;20194;-59
2022/08/01 03:49:32;;;;;;;4.75;2.58;;;19.30;99.90;;;;;;5017431;28;20180;-58
2022/08/01 03:52:01;;;;;;;5.25;2.58;;;19.30;99.90;;;;;;5011751;28;20260;-52
2022/08/01 03:54:33;;;;;;;4.93;2.45;;;19.30;99.90;;;;;;5014873;28;20192;-55
2022/08/01 03:57:01;;;;;;;4.03;2.42;;;19.30;99.90;;;;;;5009683;28;20193;-54
2022/08/01 03:59:28;;;;;;;3.15;2.25;;;19.20;99.90;;;;;;4995093;28;20225;-50
2022/08/01 04:01:55;;;;;;;4.63;2.60;;;19.30;99.90;;;;;;4995873;28;20607;-61
2022/08/01 04:04:22;;;;;;;4.63;2.97;;;19.30;99.90;;;;;;5011790;28;20183;-54
2022/08/01 04:06:51;;;;;;;5.35;2.53;;;19.30;99.90;;;;;;5012777;28;20271;-56
2022/08/01 04:09:16;;;;;;;4.38;3.00;;;19.20;99.90;;;;;;5032270;28;20278;-55
2022/08/01 04:11:42;;;;;;;6.03;4.28;;;19.20;99.90;;;;;;5014911;28;20192;-55
2022/08/01 04:14:08;;;;;;;5.80;3.40;;;19.20;99.90;;;;;;5012752;28;20247;-54
2022/08/01 04:16:34;;;;;;;6.25;3.38;;;19.20;99.90;;;;;;5018051;28;20242;-55
2022/08/01 04:19:00;;;;;;;7.90;3.40;;;19.20;99.90;;;;;;5030081;28;20223;-56
2022/08/01 04:21:29;;;;;;;5.30;3.15;;;19.30;99.90;;;;;;5024818;28;20243;-54
2022/08/01 04:24:01;;;;;;;10.23;3.53;;;19.20;99.90;;;;;;5014301;28;20249;-56
2022/08/01 04:26:28;;;;;;;5.85;3.60;;;19.20;99.90;;;;;;5027676;28;20211;-56
2022/08/01 04:28:55;;;;;;;9.07;4.22;;;19.30;99.90;;;;;;5028193;28;20192;-56
2022/08/01 04:31:25;;;;;;;8.18;4.28;;;19.30;99.90;;;;;;5031672;28;20215;-55
2022/08/01 04:33:54;;;;;;;11.20;4.60;;;19.20;99.90;;;;;;5015814;28;20219;-56
2022/08/01 04:36:23;;;;;;;10.18;4.93;;;19.30;99.90;;;;;;5041828;28;20184;-53
2022/08/01 04:38:55;;;;;;;9.63;5.00;;;19.30;99.90;;;;;;5032877;28;20196;-51
2022/08/01 04:41:22;;;;;;;11.50;5.70;;;19.30;99.90;;;;;;5027318;28;20199;-55
2022/08/01 04:43:48;;;;;;;14.35;5.75;;;19.30;99.90;;;;;;5017136;28;20267;-52
2022/08/01 04:46:15;;;;;;;13.88;6.03;;;19.20;99.90;;;;;;5015192;28;20382;-54
2022/08/01 04:48:41;;;;;;;18.55;6.50;;;19.20;99.90;;;;;;5029848;28;20187;-53
2022/08/01 04:51:15;;;;;;;17.45;6.80;;;19.20;99.90;;;;;;5027848;28;20272;-55
2022/08/01 04:53:42;;;;;;;14.82;6.47;;;19.20;99.90;;;;;;5020872;28;20184;-50
2022/08/01 04:56:08;;;;;;;19.33;6.85;;;19.20;99.90;;;;;;5019481;28;20187;-51
2022/08/01 04:58:33;;;;;;;18.38;7.07;;;19.20;99.90;;;;;;5012021;28;20683;-50
2022/08/01 05:00:59;;;;;;;18.33;6.75;;;19.20;99.90;;;;;;5016198;28;20188;-58
2022/08/01 05:03:25;;;;;;;15.98;6.82;;;19.30;99.90;;;;;;5031508;28;20612;-50
2022/08/01 05:05:52;;;;;;;17.05;6.80;;;19.30;99.90;;;;;;5024408;28;20188;-48
2022/08/01 05:08:17;;;;;;;26.65;6.22;;;19.30;99.90;;;;;;5012589;28;20258;-49
2022/08/01 05:10:43;;;;;;;26.13;6.78;;;19.40;99.90;;;;;;5019008;28;20382;-61
2022/08/01 05:13:09;;;;;;;18.00;6.28;;;19.30;99.90;;;;;;5011976;28;20667;-50
2022/08/01 05:15:38;;;;;;;27.92;7.00;;;19.40;99.90;;;;;;5024290;28;20675;-52
2022/08/01 05:18:05;;;;;;;28.33;6.35;;;19.40;99.90;;;;;;5028530;28;20259;-54
2022/08/01 05:20:31;;;;;;;25.67;6.30;;;19.40;99.90;;;;;;5018141;28;20211;-62
2022/08/01 05:22:57;;;;;;;22.67;5.80;;;19.30;99.90;;;;;;5020437;28;20215;-50
2022/08/01 05:25:23;;;;;;;24.90;6.22;;;19.40;99.90;;;;;;5022715;28;20188;-52
2022/08/01 05:27:49;;;;;;;29.38;6.50;;;19.30;99.90;;;;;;5005740;28;20180;-58
2022/08/01 05:30:15;;;;;;;30.20;6.45;;;19.40;99.90;;;;;;5016781;28;20279;-49
2022/08/01 05:32:42;;;;;;;32.35;6.78;;;19.40;99.90;;;;;;5011359;28;20180;-54
2022/08/01 05:35:08;;;;;;;26.83;6.55;;;19.40;99.90;;;;;;5019409;28;20179;-55
2022/08/01 05:37:34;;;;;;;28.02;6.53;;;19.40;99.90;;;;;;5012275;28;20246;-54
2022/08/01 05:40:00;;;;;;;24.90;6.47;;;19.40;99.90;;;;;;5014313;28;20615;-50
2022/08/01 05:42:26;;;;;;;34.38;7.20;;;19.40;99.90;;;;;;5014596;28;20227;-49
2022/08/01 05:44:52;;;;;;;30.52;6.05;;;19.40;99.90;;;;;;5012880;28;20936;-47
2022/08/01 05:47:18;;;;;;;30.20;6.45;;;19.30;99.90;;;;;;5022051;28;20188;-52
2022/08/01 05:49:45;;;;;;;32.60;5.60;;;19.20;99.90;;;;;;5023124;28;20558;-54
2022/08/01 05:52:11;;;;;;;27.42;5.57;;;19.20;99.90;;;;;;5023584;28;20663;-54
2022/08/01 05:54:37;;;;;;;27.40;7.70;;;19.20;99.90;;;;;;5011722;28;20204;-54
2022/08/01 05:57:03;;;;;;;31.52;5.72;;;19.20;99.90;;;;;;5026306;28;20214;-57
2022/08/01 05:59:30;;;;;;;27.67;5.30;;;19.20;99.90;;;;;;5024907;28;20208;-55
2022/08/01 06:01:56;;;;;;;28.30;5.53;;;19.20;99.90;;;;;;4995640;28;20200;-55
2022/08/01 06:04:22;;;;;;;29.73;5.60;;;19.20;99.90;;;;;;5015195;28;20180;-52
2022/08/01 06:06:48;;;;;;;23.98;5.10;;;19.20;99.90;;;;;;5022697;28;20195;-62
2022/08/01 06:09:14;;;;;;;27.33;5.00;;;19.20;99.90;;;;;;5025650;28;20589;-55
2022/08/01 06:11:40;;;;;;;25.17;4.50;;;19.20;99.90;;;;;;5027946;28;20192;-53
2022/08/01 06:14:06;;;;;;;22.92;4.55;;;19.20;99.90;;;;;;5029740;28;20198;-54
2022/08/01 06:16:32;;;;;;;20.23;4.75;;;19.20;99.90;;;;;;5014324;28;20184;-55
2022/08/01 06:18:59;;;;;;;24.90;4.75;;;19.20;99.90;;;;;;5028919;28;20211;-54
2022/08/01 06:21:25;;;;;;;23.33;5.22;;;19.20;99.90;;;;;;5020880;28;20530;-53
2022/08/01 06:23:50;;;;;;;18.60;4.28;;;19.20;99.90;;;;;;5027347;28;20263;-58
2022/08/01 06:26:19;;;;;;;22.58;4.53;;;19.20;99.90;;;;;;5027826;28;20188;-54
2022/08/01 06:28:45;;;;;;;25.27;5.10;;;19.20;99.90;;;;;;5029731;28;20533;-55
2022/08/01 06:31:13;;;;;;;23.67;4.85;;;19.30;99.90;;;;;;5027633;28;20187;-57
2022/08/01 06:33:39;;;;;;;24.90;5.55;;;19.30;99.90;;;;;;5027517;28;20187;-55
2022/08/01 06:36:05;;;;;;;25.13;4.43;;;19.40;99.90;;;;;;5030085;28;20287;-55
2022/08/01 06:38:31;;;;;;;20.77;3.85;;;19.40;99.90;;;;;;5031957;28;20187;-65
2022/08/01 06:40:57;;;;;;;26.13;4.25;;;19.40;99.90;;;;;;5025415;28;20215;-54
2022/08/01 06:43:22;;;;;;;18.35;3.65;;;19.40;99.90;;;;;;5025679;28;20193;-55
2022/08/01 06:45:49;;;;;;;21.25;3.90;;;19.50;99.90;;;;;;5020473;28;20606;-55
2022/08/01 06:48:14;;;;;;;15.30;3.15;;;19.50;99.90;;;;;;5022463;28;20183;-55
2022/08/01 06:50:40;;;;;;;16.40;3.20;;;19.50;99.90;;;;;;5036915;28;20303;-56
2022/08/01 06:53:06;;;;;;;19.52;3.25;;;19.50;99.90;;;;;;5026024;28;20185;-56
2022/08/01 06:55:32;;;;;;;18.60;3.97;;;19.50;99.90;;;;;;5017445;28;20180;-57
2022/08/01 06:57:57;;;;;;;19.15;3.50;;;19.50;99.90;;;;;;5035766;28;20218;-57
2022/08/01 07:00:25;;;;;;;16.80;3.30;;;19.50;99.90;;;;;;5031229;28;20725;-55
2022/08/01 07:02:53;;;;;;;15.77;3.38;;;19.50;99.90;;;;;;5035553;28;20730;-55
2022/08/01 07:05:19;;;;;;;17.98;3.60;;;19.50;99.90;;;;;;5027495;28;20183;-56
2022/08/01 07:07:45;;;;;;;18.02;3.28;;;19.60;99.90;;;;;;5034456;28;20308;-57
2022/08/01 07:10:12;;;;;;;17.88;3.53;;;19.60;99.90;;;;;;5031202;28;20219;-56
2022/08/01 07:12:39;;;;;;;21.50;3.63;;;19.60;99.90;;;;;;5022233;28;20220;-56
2022/08/01 07:15:05;;;;;;;19.75;3.58;;;19.60;99.90;;;;;;5020989;28;20204;-58
2022/08/01 07:17:32;;;;;;;20.08;3.10;;;19.60;99.90;;;;;;5041956;28;20280;-58
2022/08/01 07:19:58;;;;;;;22.55;3.65;;;19.70;99.90;;;;;;5013884;28;20200;-57
2022/08/01 07:22:24;;;;;;;16.08;3.42;;;19.70;99.90;;;;;;5015167;28;20276;-57
2022/08/01 07:24:50;;;;;;;18.38;3.78;;;19.70;99.90;;;;;;5014766;28;20277;-56
2022/08/01 07:27:15;;;;;;;14.32;2.90;;;19.80;99.90;;;;;;5028725;28;20264;-57
2022/08/01 07:29:41;;;;;;;18.00;3.10;;;19.80;99.90;;;;;;5016832;28;20266;-59
2022/08/01 07:32:07;;;;;;;12.60;2.78;;;19.90;99.90;;;;;;5034572;28;20665;-56
2022/08/01 07:34:33;;;;;;;12.00;2.90;;;19.90;99.90;;;;;;5034486;28;20211;-61
2022/08/01 07:36:59;;;;;;;20.05;3.17;;;20.00;99.90;;;;;;5033298;28;20245;-56
2022/08/01 07:39:25;;;;;;;17.33;3.20;;;20.10;99.90;;;;;;5029613;28;20220;-59
2022/08/01 07:41:51;;;;;;;18.17;3.15;;;20.10;99.90;;;;;;5038494;28;20698;-56
2022/08/01 07:44:17;;;;;;;16.35;3.13;;;20.20;99.90;;;;;;5022796;28;20183;-59
2022/08/01 07:46:44;;;;;;;15.63;2.88;;;20.20;99.90;;;;;;5023179;28;20275;-57
2022/08/01 07:49:10;;;;;;;17.45;3.10;;;20.30;99.90;;;;;;5024640;28;20659;-58
2022/08/01 07:51:35;;;;;;;21.55;3.63;;;20.30;99.90;;;;;;5021867;28;20717;-58
2022/08/01 07:54:01;;;;;;;16.25;3.35;;;20.30;99.90;;;;;;5028837;28;20180;-58
2022/08/01 07:56:27;;;;;;;12.82;2.90;;;20.40;99.90;;;;;;5027117;28;20188;-58
2022/08/01 07:58:53;;;;;;;11.95;2.97;;;20.50;99.90;;;;;;5031432;28;20212;-59
2022/08/01 08:01:19;;;;;;;19.80;3.00;;;20.50;99.90;;;;;;5031978;28;20188;-57
2022/08/01 08:03:45;;;;;;;13.85;3.10;;;20.50;99.90;;;;;;5032957;28;20192;-57
2022/08/01 08:06:11;;;;;;;19.48;2.95;;;20.50;99.90;;;;;;5023391;28;20239;-60
2022/08/01 08:08:37;;;;;;;12.73;2.40;;;20.50;99.90;;;;;;5014258;28;20237;-57
2022/08/01 08:11:03;;;;;;;14.80;2.78;;;20.50;99.90;;;;;;5013492;28;20670;-58
2022/08/01 08:13:28;;;;;;;12.07;2.63;;;20.50;99.90;;;;;;5013393;28;20180;-57
2022/08/01 08:15:55;;;;;;;12.75;2.60;;;20.50;99.90;;;;;;5020666;28;20184;-57
2022/08/01 08:18:21;;;;;;;12.77;2.35;;;20.50;99.90;;;;;;5016782;28;20196;-56
2022/08/01 08:20:47;;;;;;;14.20;2.58;;;20.60;99.90;;;;;;5024532;28;20219;-64
2022/08/01 08:25:57;;;;;;;19.52;2.75;;;20.60;99.90;;;;;;5033488;28;20214;-64
2022/08/01 08:28:23;;;;;;;17.55;2.80;;;20.70;99.90;;;;;;5030641;28;20191;-58
2022/08/01 08:30:49;;;;;;;21.98;2.83;;;20.80;99.90;;;;;;5033646;28;20665;-59
2022/08/01 08:33:15;;;;;;;13.13;3.17;;;20.80;99.90;;;;;;5034619;28;20191;-55
2022/08/01 08:35:41;;;;;;;20.70;3.97;;;20.90;99.90;;;;;;5028978;28;20196;-58
2022/08/01 08:38:07;;;;;;;16.77;3.55;;;20.90;99.90;;;;;;5017538;28;20494;-56
2022/08/01 08:40:35;;;;;;;11.85;2.38;;;21.00;99.90;;;;;;5018129;28;20239;-58
2022/08/01 08:43:04;;;;;;;18.55;2.90;;;21.10;99.90;;;;;;5012772;28;20288;-60
2022/08/01 08:45:30;;;;;;;10.70;2.58;;;21.10;99.90;;;;;;5023436;28;20243;-57
2022/08/01 08:47:57;;;;;;;13.02;2.60;;;21.20;99.90;;;;;;5024387;28;20187;-57
2022/08/01 08:50:27;;;;;;;11.50;2.40;;;21.30;99.90;;;;;;5033495;28;20195;-56
2022/08/01 08:52:54;;;;;;;10.30;2.30;;;21.30;99.90;;;;;;5012796;28;20223;-57
2022/08/01 08:55:22;;;;;;;19.13;3.50;;;21.40;99.90;;;;;;5013593;28;20289;-56
2022/08/01 08:57:49;;;;;;;12.88;2.85;;;21.40;99.90;;;;;;5013427;28;20176;-57
2022/08/01 09:00:16;;;;;;;11.73;2.45;;;21.50;99.90;;;;;;5027006;28;20214;-57
2022/08/01 09:02:46;;;;;;;15.40;2.75;;;21.60;99.90;;;;;;5021979;28;20185;-57
2022/08/01 09:05:13;;;;;;;12.63;3.17;;;21.60;99.90;;;;;;5016273;28;20190;-56
2022/08/01 09:07:39;;;;;;;18.70;2.75;;;21.60;99.90;;;;;;5032661;28;20277;-57
2022/08/01 09:10:06;;;;;;;15.98;2.38;;;21.70;99.90;;;;;;5029325;28;20199;-56
2022/08/01 09:12:32;;;;;;;9.88;2.30;;;21.70;99.90;;;;;;5016407;28;20223;-62
2022/08/01 09:14:58;;;;;;;13.82;3.92;;;21.80;99.90;;;;;;5021035;28;20318;-61
2022/08/01 09:17:24;;;;;;;11.07;2.80;;;21.80;99.90;;;;;;5011040;28;20685;-57
2022/08/01 09:19:53;;;;;;;7.90;2.50;;;21.90;99.90;;;;;;5013227;28;20311;-57
2022/08/01 09:22:22;;;;;;;11.18;2.63;;;21.90;99.90;;;;;;5032600;28;20180;-56
2022/08/01 09:25:09;;;;;;;15.48;3.08;;;22.00;99.90;;;;;;5030262;28;20182;-55
2022/08/01 09:27:40;;;;;;;10.70;2.47;;;22.10;99.90;;;;;;5026969;28;20263;-57
2022/08/01 09:30:14;;;;;;;10.38;2.40;;;22.10;99.90;;;;;;5028572;28;20543;-55
2022/08/01 09:33:04;;;;;;;13.13;2.63;;;22.10;99.90;;;;;;5030032;28;20183;-55
2022/08/01 09:35:36;;;;;;;10.77;2.42;;;22.20;99.90;;;;;;5023749;28;20193;-55
2022/08/01 09:38:18;;;;;;;12.45;2.42;;;22.30;99.90;;;;;;5012025;28;20240;-56
2022/08/01 09:40:52;;;;;;;9.50;2.50;;;22.40;99.90;;;;;;5017865;28;20269;-58
2022/08/01 09:43:19;;;;;;;12.98;2.28;;;22.40;99.90;;;;;;5032447;28;20199;-55
2022/08/01 09:45:46;;;;;;;9.63;2.30;;;22.40;99.90;;;;;;5027806;28;20266;-56
2022/08/01 09:48:12;;;;;;;10.45;2.00;;;22.50;99.90;;;;;;5033946;28;20221;-59
2022/08/01 09:50:43;;;;;;;8.43;2.05;;;22.60;99.90;;;;;;5021733;28;20192;-54
2022/08/01 09:53:13;;;;;;;9.10;2.28;;;22.70;99.90;;;;;;5011098;28;20211;-55
2022/08/01 09:55:40;;;;;;;10.48;2.83;;;22.80;99.90;;;;;;5012060;28;20196;-56
2022/08/01 09:58:08;;;;;;;13.68;2.40;;;22.80;99.90;;;;;;5012720;28;20207;-56
2022/08/01 10:00:35;;;;;;;8.82;2.50;;;22.90;99.80;;;;;;5018054;28;20215;-55
2022/08/01 10:03:20;;;;;;;9.48;2.17;;;23.00;99.20;;;;;;5029735;28;20279;-59
2022/08/01 10:05:47;;;;;;;13.30;2.88;;;23.00;99.00;;;;;;5011120;28;20215;-56
2022/08/01 10:08:13;;;;;;;7.32;1.98;;;23.00;98.50;;;;;;5011990;28;20628;-58
2022/08/01 10:10:39;;;;;;;8.65;2.10;;;23.10;98.50;;;;;;5016858;28;20191;-54
2022/08/01 10:13:05;;;;;;;12.07;2.58;;;23.10;98.60;;;;;;5019235;28;20703;-55
2022/08/01 10:15:32;;;;;;;8.95;2.47;;;23.20;98.10;;;;;;5017717;28;20226;-61
2022/08/01 10:18:04;;;;;;;5.53;2.03;;;23.20;97.50;;;;;;5030540;28;20183;-54
2022/08/01 10:20:32;;;;;;;12.65;4.13;;;23.30;97.70;;;;;;5023474;28;20285;-54
2022/08/01 10:23:03;;;;;;;9.93;2.30;;;23.30;96.90;;;;;;5027259;28;20183;-51
2022/08/01 10:25:36;;;;;;;8.90;2.00;;;23.30;96.80;;;;;;5025815;28;20272;-58
2022/08/01 10:28:10;;;;;;;9.25;2.08;;;23.30;96.40;;;;;;5026955;28;20184;-56
2022/08/01 10:30:39;;;;;;;8.30;2.15;;;23.40;95.80;;;;;;5027213;28;20188;-56
2022/08/01 10:33:05;;;;;;;5.13;1.70;;;23.40;95.30;;;;;;5035902;28;20176;-56
2022/08/01 10:35:31;;;;;;;7.25;2.20;;;23.50;94.90;;;;;;5033961;28;20207;-55
2022/08/01 10:37:57;;;;;;;10.07;2.05;;;23.50;94.60;;;;;;5022939;28;20193;-59
2022/08/01 10:40:23;;;;;;;10.25;2.05;;;23.50;94.20;;;;;;5020838;28;20204;-58
2022/08/01 10:42:51;;;;;;;8.05;1.77;;;23.50;94.10;;;;;;5033575;28;20628;-56
2022/08/01 10:45:17;;;;;;;5.78;1.80;;;23.60;93.40;;;;;;5028436;28;20184;-56
2022/08/01 10:47:54;;;;;;;10.43;2.10;;;23.70;92.90;;;;;;5015115;28;20564;-53
2022/08/01 10:50:36;;;;;;;11.23;2.30;;;23.70;92.80;;;;;;5045924;28;20187;-56
2022/08/01 10:53:10;;;;;;;9.40;2.38;;;23.70;93.20;;;;;;5023656;28;20607;-56
2022/08/01 10:55:55;;;;;;;5.45;1.60;;;23.80;92.40;;;;;;5022224;28;20192;-56
2022/08/01 10:58:25;;;;;;;5.00;1.90;;;23.80;90.90;;;;;;5034176;28;20188;-56
2022/08/01 11:01:21;;;;;;;8.00;1.90;;;23.80;90.60;;;;;;5031190;28;20199;-56
2022/08/01 11:04:09;;;;;;;6.28;2.03;;;23.80;90.70;;;;;;5055085;28;20277;-56
2022/08/01 11:06:34;;;;;;;13.23;2.58;;;23.90;90.80;;;;;;5037589;28;20216;-55
2022/08/01 11:09:01;;;;;;;8.75;2.22;;;24.00;90.90;;;;;;5040801;28;20304;-56
2022/08/01 11:11:27;;;;;;;9.80;2.60;;;24.00;90.10;;;;;;5050729;28;20194;-56
2022/08/01 11:14:03;;;;;;;8.32;3.00;;;24.00;89.90;;;;;;5054724;28;20183;-56
2022/08/01 11:16:35;;;;;;;6.13;2.30;;;23.90;90.00;;;;;;5038599;28;20183;-56
2022/08/01 11:19:01;;;;;;;9.77;2.25;;;23.90;90.30;;;;;;5038504;28;20215;-56
2022/08/01 11:21:52;;;;;;;6.97;1.90;;;24.00;90.10;;;;;;5052301;28;20210;-56
2022/08/01 11:24:56;;;;;;;7.50;1.77;;;24.20;90.10;;;;;;5042004;28;20219;-58
2022/08/01 11:27:24;;;;;;;7.32;1.92;;;24.30;89.40;;;;;;5025508;28;20239;-56
2022/08/01 11:30:08;;;;;;;7.68;2.10;;;24.40;87.60;;;;;;5034714;28;20326;-57
2022/08/01 11:32:55;;;;;;;8.57;2.00;;;24.40;85.70;;;;;;5054268;28;20183;-56
2022/08/01 11:35:26;;;;;;;9.80;2.00;;;24.50;86.50;;;;;;5052572;28;20183;-56
2022/08/01 11:37:56;;;;;;;9.27;2.03;;;24.60;86.40;;;;;;5036145;28;20555;-55
2022/08/01 11:40:27;;;;;;;8.52;1.90;;;24.70;85.60;;;;;;5046224;28;20691;-56
2022/08/01 11:43:12;;;;;;;4.38;1.77;;;24.80;82.90;;;;;;5034198;28;20180;-55
2022/08/01 11:45:55;;;;;;;7.53;2.08;;;25.00;82.80;;;;;;5033719;28;20179;-56
2022/08/01 11:48:26;;;;;;;9.57;2.00;;;25.00;78.50;;;;;;5035478;28;20191;-56
2022/08/01 11:50:53;;;;;;;7.80;1.80;;;25.10;80.30;;;;;;5042147;28;20610;-58
2022/08/01 11:53:19;;;;;;;7.13;1.88;;;25.20;80.60;;;;;;5018845;28;20499;-56
2022/08/01 11:55:48;;;;;;;6.93;2.00;;;25.30;80.80;;;;;;5039774;28;20274;-57
2022/08/01 11:58:14;;;;;;;5.72;2.08;;;25.40;79.60;;;;;;5053005;28;20179;-58
2022/08/01 12:00:41;;;;;;;11.52;2.30;;;25.60;79.30;;;;;;5051654;28;20224;-58
2022/08/01 12:03:11;;;;;;;7.57;1.80;;;25.70;78.50;;;;;;5044846;28;20253;-61
2022/08/01 12:05:38;;;;;;;7.05;2.22;;;25.80;77.40;;;;;;5018181;28;20249;-57
2022/08/01 12:08:06;;;;;;;7.57;1.83;;;25.80;77.30;;;;;;5020649;28;20313;-61
2022/08/01 12:10:36;;;;;;;8.85;2.13;;;25.90;77.50;;;;;;5045590;28;20266;-60
2022/08/01 12:13:04;;;;;;;9.65;2.15;;;25.90;77.40;;;;;;5058052;28;20191;-58
2022/08/01 12:15:35;;;;;;;8.48;1.90;;;25.90;76.30;;;;;;5031876;28;20325;-56
2022/08/01 12:18:06;;;;;;;7.35;1.90;;;25.90;74.90;;;;;;5035932;28;20172;-57
2022/08/01 12:20:38;;;;;;;6.38;1.95;;;25.80;74.90;;;;;;5028808;28;20353;-59
2022/08/01 12:23:07;;;;;;;5.80;2.13;;;25.80;75.00;;;;;;5048238;28;20183;-56
2022/08/01 12:25:34;;;;;;;9.20;2.10;;;25.80;75.00;;;;;;5035379;28;20267;-60
2022/08/01 12:28:02;;;;;;;11.40;3.45;;;25.90;76.40;;;;;;5035157;28;20191;-61
2022/08/01 12:30:30;;;;;;;8.52;2.20;;;25.90;75.80;;;;;;5046348;28;20241;-57
2022/08/01 12:32:57;;;;;;;10.70;2.20;;;25.90;75.00;;;;;;5044334;28;20251;-57
2022/08/01 12:35:25;;;;;;;10.27;2.33;;;25.90;75.10;;;;;;5044533;28;20182;-57
2022/08/01 12:37:56;;;;;;;7.72;2.00;;;25.90;74.90;;;;;;5033325;28;20250;-58
2022/08/01 12:40:25;;;;;;;7.65;2.15;;;25.90;75.70;;;;;;5050057;28;20213;-57
2022/08/01 12:42:56;;;;;;;6.78;2.00;;;26.00;74.80;;;;;;5050744;28;20179;-62
2022/08/01 12:45:32;;;;;;;7.65;2.08;;;26.00;74.40;;;;;;5033256;28;20188;-58
2022/08/01 12:48:00;;;;;;;9.82;2.25;;;26.00;73.80;;;;;;5035196;28;20195;-57
2022/08/01 12:50:29;;;;;;;6.40;1.60;;;26.00;72.30;;;;;;5048493;28;20195;-57
2022/08/01 12:52:56;;;;;;;8.20;1.80;;;26.00;73.40;;;;;;5053143;28;20176;-59